This is the latest recevied weather packets stored in our database for station/object W3SN-13. If no packets are shown the sender has not sent any weather packets the latest 10 day(s).
| Time | Temp. | Humidity | Pressure | Rain* | Wind** | Luminosity | Snow |
|---|---|---|---|---|---|---|---|
| 1788054088 | 33.89° C | 37% | 1011.3 hPa | 0 mm | - | - | - |
| 1788053485 | 33.89° C | 35% | 1011.3 hPa | 0 mm | - | - | - |
| 1788052884 | 34.44° C | 35% | 1011.3 hPa | 0 mm | - | - | - |
| 1788052283 | 34.44° C | 35% | 1011.3 hPa | 0 mm | - | - | - |
| 1788051681 | 34.44° C | 35% | 1011.4 hPa | 0 mm | - | - | - |
| 1788051079 | 34.44° C | 35% | 1011.4 hPa | 0 mm | - | - | - |
| 1788050478 | 34.44° C | 36% | 1011.4 hPa | 0 mm | - | - | - |
| 1788049876 | 35° C | 33% | 1011.3 hPa | 0 mm | - | - | - |
| 1788049275 | 35.56° C | 33% | 1011.2 hPa | 0 mm | - | - | - |
| 1788048673 | 35° C | 34% | 1011.2 hPa | 0 mm | - | - | - |
| 1788048071 | 35° C | 32% | 1011.1 hPa | 0 mm | - | - | - |
| 1788047470 | 35.56° C | 32% | 1011.1 hPa | 0 mm | - | - | - |
| 1788046868 | 35.56° C | 32% | 1011.2 hPa | 0 mm | - | - | - |
| 1788046267 | 35.56° C | 32% | 1011.2 hPa | 0 mm | - | - | - |
| 1788045665 | 35.56° C | 33% | 1011.2 hPa | 0 mm | - | - | - |
| 1788045064 | 35.56° C | 32% | 1011.2 hPa | 0 mm | - | - | - |
| 1788044462 | 35.56° C | 33% | 1011.3 hPa | 0 mm | - | - | - |
| 1788043861 | 35.56° C | 34% | 1011.4 hPa | 0 mm | - | - | - |
| 1788043259 | 35.56° C | 31% | 1011.4 hPa | 0 mm | - | - | - |
| 1788042657 | 36.11° C | 32% | 1011.5 hPa | 0 mm | - | - | - |
| 1788042056 | 36.11° C | 34% | 1011.8 hPa | 0 mm | - | - | - |
| 1788041454 | 36.11° C | 33% | 1011.9 hPa | 0 mm | - | - | - |
| 1788040853 | 36.11° C | 33% | 1012 hPa | 0 mm | - | - | - |
| 1788040252 | 36.11° C | 34% | 1012.1 hPa | 0 mm | - | - | - |
| 1788039650 | 36.11° C | 32% | 1012.1 hPa | 0 mm | - | - | - |
* Rain latest hour (hover to see other rain measurements)
** Current wind speed in m/s (hover to see current wind gust speed)